KPVD

Theodore Francis Green State Airport

Providence, Rhode Island, USA
METAR KPVD 170251Z 00000KT 10SM BKN250 08/03 A3005 RMK AO2 SLP174 T00780028 51004
Observed Flight Rules
Oct-17 @ 02:51 UTC (47 minutes ago) Visual Flight Rules
Visibility Clouds
10 miles
  • Broken at 25,000' AGL
Temperatures Readings
Current 8°C / 46°F
Dewpoint 3°C / 37°F
Humidity 71%
Altimeter 30.05" Hg
Pressure 1017.4 hPa
Elevation 16
METAR KPVD 170251Z 00000KT 10SM BKN250 08/03 A3005 RMK AO2 SLP174 T00780028 51004
Observed Flight Rules
Oct-17 @ 02:51 UTC
(47 minutes ago)
VFR
Clouds
  • Broken at 25,000' AGL
Temperature Dewpoint
8°C / 46°F 3°C / 37°F
Humidity Altimeter Pressure
71% 30.05" Hg 1017.4 hPa